sensor_id;sensor_type;location;lat;lon;timestamp;P1;durP1;ratioP1;P2;durP2;ratioP2
3811;SDS011;1921;49.368;11.068;2023-04-05T00:01:40;45.03;;;41.77;;
3811;SDS011;1921;49.368;11.068;2023-04-05T00:04:06;45.10;;;41.20;;
3811;SDS011;1921;49.368;11.068;2023-04-05T00:06:32;44.97;;;41.80;;
3811;SDS011;1921;49.368;11.068;2023-04-05T00:08:58;44.70;;;41.40;;
3811;SDS011;1921;49.368;11.068;2023-04-05T00:11:28;45.23;;;41.63;;
3811;SDS011;1921;49.368;11.068;2023-04-05T00:14:00;44.33;;;41.03;;
3811;SDS011;1921;49.368;11.068;2023-04-05T00:16:27;44.70;;;41.57;;
3811;SDS011;1921;49.368;11.068;2023-04-05T00:18:55;44.40;;;41.40;;
3811;SDS011;1921;49.368;11.068;2023-04-05T00:21:21;44.20;;;41.00;;
3811;SDS011;1921;49.368;11.068;2023-04-05T00:23:48;44.50;;;41.10;;
3811;SDS011;1921;49.368;11.068;2023-04-05T00:26:17;44.47;;;41.27;;
3811;SDS011;1921;49.368;11.068;2023-04-05T00:28:43;44.30;;;41.03;;
3811;SDS011;1921;49.368;11.068;2023-04-05T00:31:11;43.87;;;40.80;;
3811;SDS011;1921;49.368;11.068;2023-04-05T00:33:37;44.43;;;41.40;;
3811;SDS011;1921;49.368;11.068;2023-04-05T00:36:13;44.67;;;41.27;;
3811;SDS011;1921;49.368;11.068;2023-04-05T00:38:44;43.13;;;40.23;;
3811;SDS011;1921;49.368;11.068;2023-04-05T00:41:12;42.70;;;39.77;;
3811;SDS011;1921;49.368;11.068;2023-04-05T00:43:38;44.57;;;41.47;;
3811;SDS011;1921;49.368;11.068;2023-04-05T00:46:05;44.20;;;41.00;;
3811;SDS011;1921;49.368;11.068;2023-04-05T00:48:31;43.40;;;40.60;;
3811;SDS011;1921;49.368;11.068;2023-04-05T00:50:58;44.00;;;40.90;;
3811;SDS011;1921;49.368;11.068;2023-04-05T00:53:24;43.43;;;40.63;;
3811;SDS011;1921;49.368;11.068;2023-04-05T00:55:51;43.00;;;40.20;;
3811;SDS011;1921;49.368;11.068;2023-04-05T00:58:18;43.87;;;40.83;;
3811;SDS011;1921;49.368;11.068;2023-04-05T01:03:42;44.37;;;41.07;;
3811;SDS011;1921;49.368;11.068;2023-04-05T01:09:56;43.10;;;40.30;;
3811;SDS011;1921;49.368;11.068;2023-04-05T01:12:26;42.65;;;39.95;;
3811;SDS011;1921;49.368;11.068;2023-04-05T01:14:56;42.60;;;39.90;;
3811;SDS011;1921;49.368;11.068;2023-04-05T01:17:25;42.40;;;39.73;;
3811;SDS011;1921;49.368;11.068;2023-04-05T01:19:54;42.63;;;39.87;;
3811;SDS011;1921;49.368;11.068;2023-04-05T01:25:14;43.20;;;40.23;;
3811;SDS011;1921;49.368;11.068;2023-04-05T01:31:01;42.57;;;39.47;;
3811;SDS011;1921;49.368;11.068;2023-04-05T01:33:47;42.33;;;39.23;;
3811;SDS011;1921;49.368;11.068;2023-04-05T01:36:26;42.77;;;39.87;;
3811;SDS011;1921;49.368;11.068;2023-04-05T01:39:04;42.08;;;39.55;;
3811;SDS011;1921;49.368;11.068;2023-04-05T01:41:33;42.00;;;39.10;;
3811;SDS011;1921;49.368;11.068;2023-04-05T01:43:59;41.88;;;39.22;;
3811;SDS011;1921;49.368;11.068;2023-04-05T01:46:25;42.20;;;39.40;;
3811;SDS011;1921;49.368;11.068;2023-04-05T01:48:50;43.70;;;40.50;;
3811;SDS011;1921;49.368;11.068;2023-04-05T01:51:16;41.97;;;39.37;;
3811;SDS011;1921;49.368;11.068;2023-04-05T01:53:42;41.17;;;38.77;;
3811;SDS011;1921;49.368;11.068;2023-04-05T01:56:07;42.70;;;39.60;;
3811;SDS011;1921;49.368;11.068;2023-04-05T01:58:33;41.63;;;38.70;;
3811;SDS011;1921;49.368;11.068;2023-04-05T02:00:59;42.73;;;39.73;;
3811;SDS011;1921;49.368;11.068;2023-04-05T02:03:24;41.77;;;39.33;;
3811;SDS011;1921;49.368;11.068;2023-04-05T02:05:50;41.43;;;38.93;;
3811;SDS011;1921;49.368;11.068;2023-04-05T02:08:16;41.00;;;38.53;;
3811;SDS011;1921;49.368;11.068;2023-04-05T02:10:42;42.22;;;39.47;;
3811;SDS011;1921;49.368;11.068;2023-04-05T02:13:09;42.65;;;39.30;;
3811;SDS011;1921;49.368;11.068;2023-04-05T02:15:35;41.57;;;38.97;;
3811;SDS011;1921;49.368;11.068;2023-04-05T02:18:01;41.78;;;39.30;;
3811;SDS011;1921;49.368;11.068;2023-04-05T02:20:27;40.90;;;38.40;;
3811;SDS011;1921;49.368;11.068;2023-04-05T02:22:54;41.95;;;39.20;;
3811;SDS011;1921;49.368;11.068;2023-04-05T02:25:20;41.70;;;39.20;;
3811;SDS011;1921;49.368;11.068;2023-04-05T02:27:46;40.73;;;38.27;;
3811;SDS011;1921;49.368;11.068;2023-04-05T02:30:13;40.97;;;38.57;;
3811;SDS011;1921;49.368;11.068;2023-04-05T02:32:39;42.70;;;39.73;;
3811;SDS011;1921;49.368;11.068;2023-04-05T02:35:10;41.65;;;38.95;;
3811;SDS011;1921;49.368;11.068;2023-04-05T02:37:36;43.20;;;39.97;;
3811;SDS011;1921;49.368;11.068;2023-04-05T02:40:05;40.83;;;38.40;;
3811;SDS011;1921;49.368;11.068;2023-04-05T02:42:33;42.50;;;39.80;;
3811;SDS011;1921;49.368;11.068;2023-04-05T02:45:00;41.63;;;38.95;;
3811;SDS011;1921;49.368;11.068;2023-04-05T02:47:26;42.13;;;39.33;;
3811;SDS011;1921;49.368;11.068;2023-04-05T02:49:52;40.97;;;38.50;;
3811;SDS011;1921;49.368;11.068;2023-04-05T02:52:17;41.33;;;38.93;;
3811;SDS011;1921;49.368;11.068;2023-04-05T02:54:43;43.50;;;39.80;;
3811;SDS011;1921;49.368;11.068;2023-04-05T02:57:10;40.97;;;38.58;;
3811;SDS011;1921;49.368;11.068;2023-04-05T02:59:37;41.88;;;39.30;;
3811;SDS011;1921;49.368;11.068;2023-04-05T03:02:06;41.00;;;38.53;;
3811;SDS011;1921;49.368;11.068;2023-04-05T03:04:33;41.10;;;38.63;;
3811;SDS011;1921;49.368;11.068;2023-04-05T03:07:00;41.20;;;38.90;;
3811;SDS011;1921;49.368;11.068;2023-04-05T03:09:29;41.25;;;38.75;;
3811;SDS011;1921;49.368;11.068;2023-04-05T03:11:59;42.22;;;39.55;;
3811;SDS011;1921;49.368;11.068;2023-04-05T03:14:25;42.28;;;39.05;;
3811;SDS011;1921;49.368;11.068;2023-04-05T03:16:51;40.97;;;38.55;;
3811;SDS011;1921;49.368;11.068;2023-04-05T03:19:17;42.50;;;39.50;;
3811;SDS011;1921;49.368;11.068;2023-04-05T03:21:46;41.78;;;39.17;;
3811;SDS011;1921;49.368;11.068;2023-04-05T03:24:12;40.70;;;38.20;;
3811;SDS011;1921;49.368;11.068;2023-04-05T03:26:40;41.70;;;39.15;;
3811;SDS011;1921;49.368;11.068;2023-04-05T03:29:09;41.63;;;39.17;;
3811;SDS011;1921;49.368;11.068;2023-04-05T03:31:35;41.83;;;39.33;;
3811;SDS011;1921;49.368;11.068;2023-04-05T03:34:01;41.53;;;39.13;;
3811;SDS011;1921;49.368;11.068;2023-04-05T03:36:26;41.40;;;38.80;;
3811;SDS011;1921;49.368;11.068;2023-04-05T03:39:05;41.83;;;38.85;;
3811;SDS011;1921;49.368;11.068;2023-04-05T03:41:36;42.20;;;39.60;;
3811;SDS011;1921;49.368;11.068;2023-04-05T03:44:02;42.40;;;39.75;;
3811;SDS011;1921;49.368;11.068;2023-04-05T03:46:29;42.92;;;40.00;;
3811;SDS011;1921;49.368;11.068;2023-04-05T03:48:55;41.40;;;38.80;;
3811;SDS011;1921;49.368;11.068;2023-04-05T03:51:24;41.15;;;38.65;;
3811;SDS011;1921;49.368;11.068;2023-04-05T03:53:50;41.50;;;38.95;;
3811;SDS011;1921;49.368;11.068;2023-04-05T03:56:16;41.00;;;38.50;;
3811;SDS011;1921;49.368;11.068;2023-04-05T03:58:42;41.40;;;38.90;;
3811;SDS011;1921;49.368;11.068;2023-04-05T04:01:09;41.72;;;39.10;;
3811;SDS011;1921;49.368;11.068;2023-04-05T04:03:35;41.67;;;39.08;;
3811;SDS011;1921;49.368;11.068;2023-04-05T04:06:01;41.57;;;38.93;;
3811;SDS011;1921;49.368;11.068;2023-04-05T04:08:28;41.92;;;38.75;;
3811;SDS011;1921;49.368;11.068;2023-04-05T04:10:54;41.37;;;38.37;;
3811;SDS011;1921;49.368;11.068;2023-04-05T04:13:20;41.80;;;39.10;;
3811;SDS011;1921;49.368;11.068;2023-04-05T04:15:46;43.17;;;40.23;;
3811;SDS011;1921;49.368;11.068;2023-04-05T04:20:41;42.60;;;39.70;;
3811;SDS011;1921;49.368;11.068;2023-04-05T04:23:07;42.20;;;39.57;;
3811;SDS011;1921;49.368;11.068;2023-04-05T04:25:34;43.15;;;40.25;;
3811;SDS011;1921;49.368;11.068;2023-04-05T04:28:02;41.40;;;38.85;;
3811;SDS011;1921;49.368;11.068;2023-04-05T04:30:33;41.60;;;38.78;;
3811;SDS011;1921;49.368;11.068;2023-04-05T04:33:00;42.45;;;39.35;;
3811;SDS011;1921;49.368;11.068;2023-04-05T04:35:29;43.55;;;39.50;;
3811;SDS011;1921;49.368;11.068;2023-04-05T04:43:11;41.38;;;38.88;;
3811;SDS011;1921;49.368;11.068;2023-04-05T04:45:46;42.45;;;39.60;;
3811;SDS011;1921;49.368;11.068;2023-04-05T04:48:14;42.05;;;38.80;;
3811;SDS011;1921;49.368;11.068;2023-04-05T04:50:41;42.33;;;39.30;;
3811;SDS011;1921;49.368;11.068;2023-04-05T04:53:11;42.45;;;39.55;;
3811;SDS011;1921;49.368;11.068;2023-04-05T04:55:38;42.88;;;40.00;;
3811;SDS011;1921;49.368;11.068;2023-04-05T04:58:07;43.47;;;40.60;;
3811;SDS011;1921;49.368;11.068;2023-04-05T05:00:34;44.75;;;40.15;;
3811;SDS011;1921;49.368;11.068;2023-04-05T05:03:08;43.50;;;40.55;;
3811;SDS011;1921;49.368;11.068;2023-04-05T05:05:41;41.30;;;38.80;;
3811;SDS011;1921;49.368;11.068;2023-04-05T05:08:12;43.35;;;40.45;;
3811;SDS011;1921;49.368;11.068;2023-04-05T05:10:38;41.93;;;39.20;;
3811;SDS011;1921;49.368;11.068;2023-04-05T05:13:04;41.80;;;39.10;;
3811;SDS011;1921;49.368;11.068;2023-04-05T05:15:30;40.60;;;38.20;;
3811;SDS011;1921;49.368;11.068;2023-04-05T05:17:56;40.67;;;38.27;;
3811;SDS011;1921;49.368;11.068;2023-04-05T05:20:23;42.03;;;39.47;;
3811;SDS011;1921;49.368;11.068;2023-04-05T05:22:52;43.20;;;40.50;;
3811;SDS011;1921;49.368;11.068;2023-04-05T05:25:18;44.43;;;41.07;;
3811;SDS011;1921;49.368;11.068;2023-04-05T05:27:47;44.30;;;41.20;;
3811;SDS011;1921;49.368;11.068;2023-04-05T05:30:14;44.70;;;41.60;;
3811;SDS011;1921;49.368;11.068;2023-04-05T05:32:40;45.63;;;42.23;;
3811;SDS011;1921;49.368;11.068;2023-04-05T05:35:07;46.57;;;43.03;;
3811;SDS011;1921;49.368;11.068;2023-04-05T05:37:33;48.37;;;44.13;;
3811;SDS011;1921;49.368;11.068;2023-04-05T05:40:00;46.40;;;42.97;;
3811;SDS011;1921;49.368;11.068;2023-04-05T05:42:26;45.50;;;42.17;;
3811;SDS011;1921;49.368;11.068;2023-04-05T05:44:52;46.50;;;43.00;;
3811;SDS011;1921;49.368;11.068;2023-04-05T05:47:18;46.40;;;42.83;;
3811;SDS011;1921;49.368;11.068;2023-04-05T05:49:44;45.07;;;41.67;;
3811;SDS011;1921;49.368;11.068;2023-04-05T05:52:09;46.00;;;42.40;;
3811;SDS011;1921;49.368;11.068;2023-04-05T05:54:35;47.33;;;43.73;;
3811;SDS011;1921;49.368;11.068;2023-04-05T05:57:01;46.67;;;43.03;;
3811;SDS011;1921;49.368;11.068;2023-04-05T05:59:27;46.63;;;42.93;;
3811;SDS011;1921;49.368;11.068;2023-04-05T06:01:53;46.07;;;42.30;;
3811;SDS011;1921;49.368;11.068;2023-04-05T06:04:19;47.77;;;43.67;;
3811;SDS011;1921;49.368;11.068;2023-04-05T06:06:45;47.07;;;43.03;;
3811;SDS011;1921;49.368;11.068;2023-04-05T06:09:11;47.20;;;43.30;;
3811;SDS011;1921;49.368;11.068;2023-04-05T06:11:39;47.00;;;43.50;;
3811;SDS011;1921;49.368;11.068;2023-04-05T06:14:05;46.70;;;43.20;;
3811;SDS011;1921;49.368;11.068;2023-04-05T06:16:31;46.13;;;42.40;;
3811;SDS011;1921;49.368;11.068;2023-04-05T06:18:56;44.07;;;40.83;;
3811;SDS011;1921;49.368;11.068;2023-04-05T06:21:22;45.43;;;42.03;;
3811;SDS011;1921;49.368;11.068;2023-04-05T06:23:48;45.40;;;42.00;;
3811;SDS011;1921;49.368;11.068;2023-04-05T06:26:15;43.47;;;40.53;;
3811;SDS011;1921;49.368;11.068;2023-04-05T06:28:44;44.10;;;40.73;;
3811;SDS011;1921;49.368;11.068;2023-04-05T06:31:18;46.60;;;43.00;;
3811;SDS011;1921;49.368;11.068;2023-04-05T06:33:49;44.67;;;41.50;;
3811;SDS011;1921;49.368;11.068;2023-04-05T06:36:16;44.00;;;40.90;;
3811;SDS011;1921;49.368;11.068;2023-04-05T06:38:42;44.53;;;41.33;;
3811;SDS011;1921;49.368;11.068;2023-04-05T06:41:08;44.17;;;41.07;;
3811;SDS011;1921;49.368;11.068;2023-04-05T06:43:33;45.83;;;42.43;;
3811;SDS011;1921;49.368;11.068;2023-04-05T06:45:59;45.67;;;41.90;;
3811;SDS011;1921;49.368;11.068;2023-04-05T06:48:25;46.07;;;42.27;;
3811;SDS011;1921;49.368;11.068;2023-04-05T06:51:00;45.90;;;42.20;;
3811;SDS011;1921;49.368;11.068;2023-04-05T06:53:27;47.17;;;43.50;;
3811;SDS011;1921;49.368;11.068;2023-04-05T06:55:54;47.20;;;43.20;;
3811;SDS011;1921;49.368;11.068;2023-04-05T06:58:22;48.30;;;43.80;;
3811;SDS011;1921;49.368;11.068;2023-04-05T07:00:49;48.07;;;43.30;;
3811;SDS011;1921;49.368;11.068;2023-04-05T07:03:15;46.57;;;42.77;;
3811;SDS011;1921;49.368;11.068;2023-04-05T07:05:55;49.10;;;44.10;;
3811;SDS011;1921;49.368;11.068;2023-04-05T07:08:23;48.40;;;44.30;;
3811;SDS011;1921;49.368;11.068;2023-04-05T07:10:51;47.00;;;43.10;;
3811;SDS011;1921;49.368;11.068;2023-04-05T07:13:17;49.00;;;44.70;;
3811;SDS011;1921;49.368;11.068;2023-04-05T07:15:45;48.87;;;44.60;;
3811;SDS011;1921;49.368;11.068;2023-04-05T07:18:11;49.43;;;44.80;;
3811;SDS011;1921;49.368;11.068;2023-04-05T07:20:39;49.63;;;44.83;;
3811;SDS011;1921;49.368;11.068;2023-04-05T07:23:05;49.60;;;45.10;;
3811;SDS011;1921;49.368;11.068;2023-04-05T07:25:31;50.47;;;45.83;;
3811;SDS011;1921;49.368;11.068;2023-04-05T07:27:57;50.47;;;45.63;;
3811;SDS011;1921;49.368;11.068;2023-04-05T07:30:24;50.50;;;45.80;;
3811;SDS011;1921;49.368;11.068;2023-04-05T07:32:51;50.50;;;45.80;;
3811;SDS011;1921;49.368;11.068;2023-04-05T07:35:17;51.50;;;46.60;;
3811;SDS011;1921;49.368;11.068;2023-04-05T07:37:43;51.40;;;46.50;;
3811;SDS011;1921;49.368;11.068;2023-04-05T07:40:09;51.60;;;46.40;;
3811;SDS011;1921;49.368;11.068;2023-04-05T07:42:35;50.20;;;45.50;;
3811;SDS011;1921;49.368;11.068;2023-04-05T07:45:01;51.00;;;45.97;;
3811;SDS011;1921;49.368;11.068;2023-04-05T07:47:27;49.50;;;44.90;;
3811;SDS011;1921;49.368;11.068;2023-04-05T07:49:53;51.43;;;46.37;;
3811;SDS011;1921;49.368;11.068;2023-04-05T07:52:20;51.40;;;46.50;;
3811;SDS011;1921;49.368;11.068;2023-04-05T07:54:45;50.87;;;46.00;;
3811;SDS011;1921;49.368;11.068;2023-04-05T07:57:18;51.80;;;46.80;;
3811;SDS011;1921;49.368;11.068;2023-04-05T07:59:44;51.50;;;46.60;;
3811;SDS011;1921;49.368;11.068;2023-04-05T08:02:11;51.80;;;46.80;;
3811;SDS011;1921;49.368;11.068;2023-04-05T08:04:37;50.30;;;45.70;;
3811;SDS011;1921;49.368;11.068;2023-04-05T08:07:03;49.90;;;45.37;;
3811;SDS011;1921;49.368;11.068;2023-04-05T08:09:29;51.30;;;46.20;;
3811;SDS011;1921;49.368;11.068;2023-04-05T08:11:54;50.77;;;45.97;;
3811;SDS011;1921;49.368;11.068;2023-04-05T08:14:21;49.17;;;44.57;;
3811;SDS011;1921;49.368;11.068;2023-04-05T08:16:47;50.27;;;45.77;;
3811;SDS011;1921;49.368;11.068;2023-04-05T08:19:14;50.20;;;45.47;;
3811;SDS011;1921;49.368;11.068;2023-04-05T08:21:40;58.27;;;46.37;;
3811;SDS011;1921;49.368;11.068;2023-04-05T08:24:06;50.60;;;45.70;;
3811;SDS011;1921;49.368;11.068;2023-04-05T08:26:32;51.50;;;46.13;;
3811;SDS011;1921;49.368;11.068;2023-04-05T08:28:58;51.13;;;46.10;;
3811;SDS011;1921;49.368;11.068;2023-04-05T08:31:24;50.03;;;45.13;;
3811;SDS011;1921;49.368;11.068;2023-04-05T08:33:49;50.60;;;45.70;;
3811;SDS011;1921;49.368;11.068;2023-04-05T08:36:15;50.90;;;45.73;;
3811;SDS011;1921;49.368;11.068;2023-04-05T08:38:41;51.10;;;46.20;;
3811;SDS011;1921;49.368;11.068;2023-04-05T08:41:16;50.63;;;45.93;;
3811;SDS011;1921;49.368;11.068;2023-04-05T08:43:57;50.90;;;45.97;;
3811;SDS011;1921;49.368;11.068;2023-04-05T08:46:26;51.53;;;46.33;;
3811;SDS011;1921;49.368;11.068;2023-04-05T08:48:56;51.13;;;46.13;;
3811;SDS011;1921;49.368;11.068;2023-04-05T08:51:23;51.53;;;46.20;;
3811;SDS011;1921;49.368;11.068;2023-04-05T08:53:50;50.97;;;45.87;;
3811;SDS011;1921;49.368;11.068;2023-04-05T08:56:21;51.97;;;46.67;;
3811;SDS011;1921;49.368;11.068;2023-04-05T09:01:30;54.23;;;48.33;;
3811;SDS011;1921;49.368;11.068;2023-04-05T09:04:01;52.47;;;47.17;;
3811;SDS011;1921;49.368;11.068;2023-04-05T09:06:31;50.10;;;45.10;;
3811;SDS011;1921;49.368;11.068;2023-04-05T09:08:59;52.50;;;47.23;;
3811;SDS011;1921;49.368;11.068;2023-04-05T09:11:29;52.77;;;47.27;;
3811;SDS011;1921;49.368;11.068;2023-04-05T09:13:56;52.80;;;47.40;;
3811;SDS011;1921;49.368;11.068;2023-04-05T09:16:22;53.70;;;48.10;;
3811;SDS011;1921;49.368;11.068;2023-04-05T09:18:49;53.63;;;47.93;;
3811;SDS011;1921;49.368;11.068;2023-04-05T09:21:15;54.10;;;48.30;;
3811;SDS011;1921;49.368;11.068;2023-04-05T09:23:50;54.60;;;47.97;;
3811;SDS011;1921;49.368;11.068;2023-04-05T09:26:18;53.20;;;47.50;;
3811;SDS011;1921;49.368;11.068;2023-04-05T09:28:46;53.27;;;47.63;;
3811;SDS011;1921;49.368;11.068;2023-04-05T09:31:31;54.03;;;47.97;;
3811;SDS011;1921;49.368;11.068;2023-04-05T09:34:00;54.13;;;47.60;;
3811;SDS011;1921;49.368;11.068;2023-04-05T09:36:33;54.67;;;48.67;;
3811;SDS011;1921;49.368;11.068;2023-04-05T09:39:03;53.90;;;48.10;;
3811;SDS011;1921;49.368;11.068;2023-04-05T09:41:31;54.07;;;48.37;;
3811;SDS011;1921;49.368;11.068;2023-04-05T09:43:58;54.77;;;48.87;;
3811;SDS011;1921;49.368;11.068;2023-04-05T09:46:28;54.23;;;48.47;;
3811;SDS011;1921;49.368;11.068;2023-04-05T09:48:58;54.43;;;48.63;;
3811;SDS011;1921;49.368;11.068;2023-04-05T09:51:36;54.43;;;48.60;;
3811;SDS011;1921;49.368;11.068;2023-04-05T09:54:06;53.40;;;47.80;;
3811;SDS011;1921;49.368;11.068;2023-04-05T09:56:36;52.63;;;47.23;;
3811;SDS011;1921;49.368;11.068;2023-04-05T09:59:07;52.10;;;46.70;;
3811;SDS011;1921;49.368;11.068;2023-04-05T10:01:35;51.50;;;46.37;;
3811;SDS011;1921;49.368;11.068;2023-04-05T10:04:02;52.20;;;46.90;;
3811;SDS011;1921;49.368;11.068;2023-04-05T10:09:02;50.43;;;45.53;;
3811;SDS011;1921;49.368;11.068;2023-04-05T10:11:29;50.47;;;45.60;;
3811;SDS011;1921;49.368;11.068;2023-04-05T10:13:55;48.40;;;43.90;;
3811;SDS011;1921;49.368;11.068;2023-04-05T10:16:24;49.50;;;44.90;;
3811;SDS011;1921;49.368;11.068;2023-04-05T10:18:52;51.50;;;46.40;;
3811;SDS011;1921;49.368;11.068;2023-04-05T10:21:20;50.47;;;45.67;;
3811;SDS011;1921;49.368;11.068;2023-04-05T10:23:53;50.70;;;45.80;;
3811;SDS011;1921;49.368;11.068;2023-04-05T10:26:31;51.40;;;46.30;;
3811;SDS011;1921;49.368;11.068;2023-04-05T10:29:16;49.80;;;45.10;;
3811;SDS011;1921;49.368;11.068;2023-04-05T10:32:03;50.80;;;45.90;;
3811;SDS011;1921;49.368;11.068;2023-04-05T10:34:50;51.50;;;46.37;;
3811;SDS011;1921;49.368;11.068;2023-04-05T10:37:53;50.83;;;46.00;;
3811;SDS011;1921;49.368;11.068;2023-04-05T10:40:47;52.37;;;47.07;;
3811;SDS011;1921;49.368;11.068;2023-04-05T10:43:19;52.70;;;47.30;;
3811;SDS011;1921;49.368;11.068;2023-04-05T10:45:48;53.07;;;47.63;;
3811;SDS011;1921;49.368;11.068;2023-04-05T10:48:20;53.93;;;48.27;;
3811;SDS011;1921;49.368;11.068;2023-04-05T10:51:12;54.30;;;48.60;;
3811;SDS011;1921;49.368;11.068;2023-04-05T10:53:39;53.90;;;48.20;;
3811;SDS011;1921;49.368;11.068;2023-04-05T10:56:05;54.53;;;48.63;;
3811;SDS011;1921;49.368;11.068;2023-04-05T10:58:32;54.20;;;48.50;;
3811;SDS011;1921;49.368;11.068;2023-04-05T11:01:00;53.80;;;48.10;;
3811;SDS011;1921;49.368;11.068;2023-04-05T11:03:41;53.07;;;47.47;;
3811;SDS011;1921;49.368;11.068;2023-04-05T11:06:21;52.77;;;47.27;;
3811;SDS011;1921;49.368;11.068;2023-04-05T11:08:54;53.03;;;47.43;;
3811;SDS011;1921;49.368;11.068;2023-04-05T11:11:39;53.37;;;47.87;;
3811;SDS011;1921;49.368;11.068;2023-04-05T11:17:03;51.90;;;46.60;;
3811;SDS011;1921;49.368;11.068;2023-04-05T11:19:56;51.83;;;46.73;;
3811;SDS011;1921;49.368;11.068;2023-04-05T11:22:28;51.93;;;46.83;;
3811;SDS011;1921;49.368;11.068;2023-04-05T11:24:57;51.47;;;46.27;;
3811;SDS011;1921;49.368;11.068;2023-04-05T11:27:29;51.50;;;46.40;;
3811;SDS011;1921;49.368;11.068;2023-04-05T11:29:58;51.70;;;46.60;;
3811;SDS011;1921;49.368;11.068;2023-04-05T11:32:39;51.40;;;46.20;;
3811;SDS011;1921;49.368;11.068;2023-04-05T11:35:14;52.40;;;47.20;;
3811;SDS011;1921;49.368;11.068;2023-04-05T11:43:05;52.60;;;47.10;;
3811;SDS011;1921;49.368;11.068;2023-04-05T11:45:36;53.67;;;48.07;;
3811;SDS011;1921;49.368;11.068;2023-04-05T11:48:04;53.17;;;47.60;;
3811;SDS011;1921;49.368;11.068;2023-04-05T11:50:35;54.00;;;48.30;;
3811;SDS011;1921;49.368;11.068;2023-04-05T11:55:40;55.20;;;48.80;;
3811;SDS011;1921;49.368;11.068;2023-04-05T11:58:15;55.67;;;49.67;;
3811;SDS011;1921;49.368;11.068;2023-04-05T12:00:43;55.03;;;49.13;;
3811;SDS011;1921;49.368;11.068;2023-04-05T12:03:14;55.13;;;49.23;;
3811;SDS011;1921;49.368;11.068;2023-04-05T12:05:44;55.73;;;49.63;;
3811;SDS011;1921;49.368;11.068;2023-04-05T12:08:20;56.90;;;50.00;;
3811;SDS011;1921;49.368;11.068;2023-04-05T12:10:57;55.87;;;49.70;;
3811;SDS011;1921;49.368;11.068;2023-04-05T12:13:31;56.40;;;50.20;;
3811;SDS011;1921;49.368;11.068;2023-04-05T12:15:59;62.07;;;49.73;;
3811;SDS011;1921;49.368;11.068;2023-04-05T12:18:27;55.00;;;48.83;;
3811;SDS011;1921;49.368;11.068;2023-04-05T12:20:55;58.57;;;51.03;;
3811;SDS011;1921;49.368;11.068;2023-04-05T12:23:22;56.73;;;50.53;;
3811;SDS011;1921;49.368;11.068;2023-04-05T12:25:49;60.43;;;52.00;;
3811;SDS011;1921;49.368;11.068;2023-04-05T12:28:18;54.93;;;49.00;;
3811;SDS011;1921;49.368;11.068;2023-04-05T12:30:51;54.80;;;48.83;;
3811;SDS011;1921;49.368;11.068;2023-04-05T12:33:25;53.30;;;47.47;;
3811;SDS011;1921;49.368;11.068;2023-04-05T12:35:56;53.80;;;48.10;;
3811;SDS011;1921;49.368;11.068;2023-04-05T12:38:28;53.67;;;48.07;;
3811;SDS011;1921;49.368;11.068;2023-04-05T12:41:01;53.97;;;48.13;;
3811;SDS011;1921;49.368;11.068;2023-04-05T12:43:37;53.30;;;47.80;;
3811;SDS011;1921;49.368;11.068;2023-04-05T12:46:10;51.60;;;46.40;;
3811;SDS011;1921;49.368;11.068;2023-04-05T12:48:41;51.27;;;46.17;;
3811;SDS011;1921;49.368;11.068;2023-04-05T12:51:13;52.63;;;46.87;;
3811;SDS011;1921;49.368;11.068;2023-04-05T12:53:44;52.63;;;47.33;;
3811;SDS011;1921;49.368;11.068;2023-04-05T12:56:14;50.80;;;45.80;;
3811;SDS011;1921;49.368;11.068;2023-04-05T12:58:40;50.47;;;45.57;;
3811;SDS011;1921;49.368;11.068;2023-04-05T13:01:06;51.20;;;46.30;;
3811;SDS011;1921;49.368;11.068;2023-04-05T13:03:32;50.57;;;45.77;;
3811;SDS011;1921;49.368;11.068;2023-04-05T13:05:58;52.27;;;46.97;;
3811;SDS011;1921;49.368;11.068;2023-04-05T13:08:24;52.10;;;46.80;;
3811;SDS011;1921;49.368;11.068;2023-04-05T13:10:51;52.50;;;47.40;;
3811;SDS011;1921;49.368;11.068;2023-04-05T13:13:17;52.87;;;47.60;;
3811;SDS011;1921;49.368;11.068;2023-04-05T13:15:45;53.20;;;47.80;;
3811;SDS011;1921;49.368;11.068;2023-04-05T13:18:11;55.83;;;49.13;;
3811;SDS011;1921;49.368;11.068;2023-04-05T13:20:40;57.03;;;49.47;;
3811;SDS011;1921;49.368;11.068;2023-04-05T13:23:06;55.03;;;49.13;;
3811;SDS011;1921;49.368;11.068;2023-04-05T13:25:35;55.47;;;48.93;;
3811;SDS011;1921;49.368;11.068;2023-04-05T13:28:02;55.90;;;49.13;;
3811;SDS011;1921;49.368;11.068;2023-04-05T13:30:30;55.63;;;49.67;;
3811;SDS011;1921;49.368;11.068;2023-04-05T13:32:56;55.27;;;49.27;;
3811;SDS011;1921;49.368;11.068;2023-04-05T13:35:22;59.10;;;50.30;;
3811;SDS011;1921;49.368;11.068;2023-04-05T13:37:48;57.00;;;50.70;;
3811;SDS011;1921;49.368;11.068;2023-04-05T13:40:14;57.07;;;50.17;;
3811;SDS011;1921;49.368;11.068;2023-04-05T13:42:41;60.23;;;51.50;;
3811;SDS011;1921;49.368;11.068;2023-04-05T13:45:07;58.87;;;51.37;;
3811;SDS011;1921;49.368;11.068;2023-04-05T13:47:33;59.40;;;51.10;;
3811;SDS011;1921;49.368;11.068;2023-04-05T13:49:59;57.57;;;50.33;;
3811;SDS011;1921;49.368;11.068;2023-04-05T13:52:26;58.67;;;50.97;;
3811;SDS011;1921;49.368;11.068;2023-04-05T13:54:52;57.77;;;50.87;;
3811;SDS011;1921;49.368;11.068;2023-04-05T13:57:18;57.37;;;51.07;;
3811;SDS011;1921;49.368;11.068;2023-04-05T13:59:44;56.80;;;50.60;;
3811;SDS011;1921;49.368;11.068;2023-04-05T14:02:10;57.53;;;51.00;;
3811;SDS011;1921;49.368;11.068;2023-04-05T14:04:36;55.83;;;49.70;;
3811;SDS011;1921;49.368;11.068;2023-04-05T14:07:03;57.27;;;50.00;;
3811;SDS011;1921;49.368;11.068;2023-04-05T14:09:30;56.50;;;50.23;;
3811;SDS011;1921;49.368;11.068;2023-04-05T14:11:57;55.03;;;49.07;;
3811;SDS011;1921;49.368;11.068;2023-04-05T14:14:25;55.10;;;49.30;;
3811;SDS011;1921;49.368;11.068;2023-04-05T14:16:51;54.23;;;48.30;;
3811;SDS011;1921;49.368;11.068;2023-04-05T14:19:17;54.07;;;48.37;;
3811;SDS011;1921;49.368;11.068;2023-04-05T14:21:43;52.87;;;47.27;;
3811;SDS011;1921;49.368;11.068;2023-04-05T14:24:09;53.90;;;48.20;;
3811;SDS011;1921;49.368;11.068;2023-04-05T14:26:35;52.40;;;47.00;;
3811;SDS011;1921;49.368;11.068;2023-04-05T14:29:01;53.70;;;48.13;;
3811;SDS011;1921;49.368;11.068;2023-04-05T14:31:27;55.10;;;49.20;;
3811;SDS011;1921;49.368;11.068;2023-04-05T14:33:53;55.77;;;49.73;;
3811;SDS011;1921;49.368;11.068;2023-04-05T14:36:19;55.20;;;49.40;;
3811;SDS011;1921;49.368;11.068;2023-04-05T14:38:45;56.13;;;49.67;;
3811;SDS011;1921;49.368;11.068;2023-04-05T14:41:10;55.73;;;49.73;;
3811;SDS011;1921;49.368;11.068;2023-04-05T14:43:36;55.43;;;49.33;;
3811;SDS011;1921;49.368;11.068;2023-04-05T14:46:02;56.40;;;50.30;;
3811;SDS011;1921;49.368;11.068;2023-04-05T14:48:28;54.33;;;48.43;;
3811;SDS011;1921;49.368;11.068;2023-04-05T14:50:55;60.23;;;50.53;;
3811;SDS011;1921;49.368;11.068;2023-04-05T14:53:23;56.33;;;50.10;;
3811;SDS011;1921;49.368;11.068;2023-04-05T14:55:49;56.60;;;50.00;;
3811;SDS011;1921;49.368;11.068;2023-04-05T14:58:15;54.50;;;48.87;;
3811;SDS011;1921;49.368;11.068;2023-04-05T15:00:41;54.07;;;48.47;;
3811;SDS011;1921;49.368;11.068;2023-04-05T15:03:11;53.27;;;47.77;;
3811;SDS011;1921;49.368;11.068;2023-04-05T15:05:36;52.47;;;47.07;;
3811;SDS011;1921;49.368;11.068;2023-04-05T15:08:02;55.20;;;49.30;;
3811;SDS011;1921;49.368;11.068;2023-04-05T15:10:28;55.17;;;49.33;;
3811;SDS011;1921;49.368;11.068;2023-04-05T15:12:53;55.50;;;49.60;;
3811;SDS011;1921;49.368;11.068;2023-04-05T15:15:20;55.73;;;49.67;;
3811;SDS011;1921;49.368;11.068;2023-04-05T15:17:46;55.60;;;49.60;;